sensor_id;sensor_type;location;lat;lon;timestamp;temperature;humidity
13049;DHT22;6591;51.446;5.404;2022-10-04T00:01:54;13.20;99.90
13049;DHT22;6591;51.446;5.404;2022-10-04T00:04:32;13.20;99.90
13049;DHT22;6591;51.446;5.404;2022-10-04T00:12:22;13.70;99.90
13049;DHT22;6591;51.446;5.404;2022-10-04T00:14:57;13.20;99.90
13049;DHT22;6591;51.446;5.404;2022-10-04T00:17:31;14.00;99.90
13049;DHT22;6591;51.446;5.404;2022-10-04T00:20:09;15.00;99.90
13049;DHT22;6591;51.446;5.404;2022-10-04T00:25:50;13.10;99.90
13049;DHT22;6591;51.446;5.404;2022-10-04T00:31:17;13.10;99.90
13049;DHT22;6591;51.446;5.404;2022-10-04T00:33:57;13.10;99.90
13049;DHT22;6591;51.446;5.404;2022-10-04T00:36:53;13.00;99.90
13049;DHT22;6591;51.446;5.404;2022-10-04T00:44:55;12.90;99.90
13049;DHT22;6591;51.446;5.404;2022-10-04T00:47:40;12.80;99.90
13049;DHT22;6591;51.446;5.404;2022-10-04T00:50:34;13.60;99.90
13049;DHT22;6591;51.446;5.404;2022-10-04T00:53:18;12.70;99.90
13049;DHT22;6591;51.446;5.404;2022-10-04T00:55:57;12.70;99.90
13049;DHT22;6591;51.446;5.404;2022-10-04T00:58:34;12.60;99.90
13049;DHT22;6591;51.446;5.404;2022-10-04T01:01:10;12.60;99.90
13049;DHT22;6591;51.446;5.404;2022-10-04T01:03:41;12.60;99.90
13049;DHT22;6591;51.446;5.404;2022-10-04T01:06:11;12.60;99.90
13049;DHT22;6591;51.446;5.404;2022-10-04T01:08:47;12.50;99.90
13049;DHT22;6591;51.446;5.404;2022-10-04T01:11:21;12.40;99.90
13049;DHT22;6591;51.446;5.404;2022-10-04T01:13:57;12.40;99.90
13049;DHT22;6591;51.446;5.404;2022-10-04T01:16:34;14.40;99.90
13049;DHT22;6591;51.446;5.404;2022-10-04T01:22:34;12.30;99.90
13049;DHT22;6591;51.446;5.404;2022-10-04T01:25:07;12.20;99.90
13049;DHT22;6591;51.446;5.404;2022-10-04T01:27:42;13.40;99.90
13049;DHT22;6591;51.446;5.404;2022-10-04T01:30:13;12.20;99.90
13049;DHT22;6591;51.446;5.404;2022-10-04T01:32:42;12.20;99.90
13049;DHT22;6591;51.446;5.404;2022-10-04T01:35:13;13.10;99.90
13049;DHT22;6591;51.446;5.404;2022-10-04T01:37:41;12.10;99.90
13049;DHT22;6591;51.446;5.404;2022-10-04T01:40:08;14.10;99.90
13049;DHT22;6591;51.446;5.404;2022-10-04T01:42:44;12.10;99.90
13049;DHT22;6591;51.446;5.404;2022-10-04T01:45:25;12.10;99.90
13049;DHT22;6591;51.446;5.404;2022-10-04T01:48:02;12.10;99.90
13049;DHT22;6591;51.446;5.404;2022-10-04T01:50:56;12.10;99.90
13049;DHT22;6591;51.446;5.404;2022-10-04T01:53:30;12.00;99.90
13049;DHT22;6591;51.446;5.404;2022-10-04T01:56:11;12.00;99.90
13049;DHT22;6591;51.446;5.404;2022-10-04T01:58:46;12.00;99.90
13049;DHT22;6591;51.446;5.404;2022-10-04T02:01:39;12.00;99.90
13049;DHT22;6591;51.446;5.404;2022-10-04T02:04:20;12.00;99.90
13049;DHT22;6591;51.446;5.404;2022-10-04T02:06:56;12.00;99.90
13049;DHT22;6591;51.446;5.404;2022-10-04T02:09:31;13.00;99.90
13049;DHT22;6591;51.446;5.404;2022-10-04T02:12:01;13.30;99.90
13049;DHT22;6591;51.446;5.404;2022-10-04T02:14:34;12.80;99.90
13049;DHT22;6591;51.446;5.404;2022-10-04T02:17:06;11.90;99.90
13049;DHT22;6591;51.446;5.404;2022-10-04T02:19:39;13.20;99.90
13049;DHT22;6591;51.446;5.404;2022-10-04T02:22:09;14.20;99.90
13049;DHT22;6591;51.446;5.404;2022-10-04T02:24:42;11.80;99.90
13049;DHT22;6591;51.446;5.404;2022-10-04T02:27:12;11.80;99.90
13049;DHT22;6591;51.446;5.404;2022-10-04T02:29:40;11.70;99.90
13049;DHT22;6591;51.446;5.404;2022-10-04T02:32:08;13.00;99.90
13049;DHT22;6591;51.446;5.404;2022-10-04T02:34:55;12.90;99.90
13049;DHT22;6591;51.446;5.404;2022-10-04T02:37:25;11.60;99.90
13049;DHT22;6591;51.446;5.404;2022-10-04T02:40:03;11.70;99.90
13049;DHT22;6591;51.446;5.404;2022-10-04T02:42:47;11.50;99.90
13049;DHT22;6591;51.446;5.404;2022-10-04T02:45:48;12.90;99.90
13049;DHT22;6591;51.446;5.404;2022-10-04T02:48:59;11.30;99.90
13049;DHT22;6591;51.446;5.404;2022-10-04T02:51:45;11.30;99.90
13049;DHT22;6591;51.446;5.404;2022-10-04T02:54:35;11.30;99.90
13049;DHT22;6591;51.446;5.404;2022-10-04T02:57:19;11.20;99.90
13049;DHT22;6591;51.446;5.404;2022-10-04T02:59:49;11.20;99.90
13049;DHT22;6591;51.446;5.404;2022-10-04T03:02:28;11.10;99.90
13049;DHT22;6591;51.446;5.404;2022-10-04T03:05:08;11.10;99.90
13049;DHT22;6591;51.446;5.404;2022-10-04T03:07:39;11.00;99.90
13049;DHT22;6591;51.446;5.404;2022-10-04T03:10:09;11.00;99.90
13049;DHT22;6591;51.446;5.404;2022-10-04T03:12:39;11.00;99.90
13049;DHT22;6591;51.446;5.404;2022-10-04T03:15:11;10.90;99.90
13049;DHT22;6591;51.446;5.404;2022-10-04T03:17:42;10.90;99.90
13049;DHT22;6591;51.446;5.404;2022-10-04T03:20:11;10.80;99.90
13049;DHT22;6591;51.446;5.404;2022-10-04T03:22:43;10.80;99.90
13049;DHT22;6591;51.446;5.404;2022-10-04T03:25:27;12.90;99.90
13049;DHT22;6591;51.446;5.404;2022-10-04T03:28:01;10.80;99.90
13049;DHT22;6591;51.446;5.404;2022-10-04T03:30:29;10.80;99.90
13049;DHT22;6591;51.446;5.404;2022-10-04T03:32:58;10.80;99.90
13049;DHT22;6591;51.446;5.404;2022-10-04T03:37:58;10.70;99.90
13049;DHT22;6591;51.446;5.404;2022-10-04T03:40:31;10.70;99.90
13049;DHT22;6591;51.446;5.404;2022-10-04T03:43:00;10.70;99.90
13049;DHT22;6591;51.446;5.404;2022-10-04T03:45:28;10.70;99.90
13049;DHT22;6591;51.446;5.404;2022-10-04T03:48:04;10.60;99.90
13049;DHT22;6591;51.446;5.404;2022-10-04T03:50:38;10.60;99.90
13049;DHT22;6591;51.446;5.404;2022-10-04T03:53:27;10.60;99.90
13049;DHT22;6591;51.446;5.404;2022-10-04T03:56:02;10.60;99.90
13049;DHT22;6591;51.446;5.404;2022-10-04T03:58:37;10.80;99.90
13049;DHT22;6591;51.446;5.404;2022-10-04T04:04:15;10.50;99.90
13049;DHT22;6591;51.446;5.404;2022-10-04T04:09:41;10.50;99.90
13049;DHT22;6591;51.446;5.404;2022-10-04T04:12:32;10.40;99.90
13049;DHT22;6591;51.446;5.404;2022-10-04T04:15:14;10.40;99.90
13049;DHT22;6591;51.446;5.404;2022-10-04T04:18:15;11.80;99.90
13049;DHT22;6591;51.446;5.404;2022-10-04T04:20:45;10.40;99.90
13049;DHT22;6591;51.446;5.404;2022-10-04T04:25:48;10.40;99.90
13049;DHT22;6591;51.446;5.404;2022-10-04T04:28:30;10.40;99.90
13049;DHT22;6591;51.446;5.404;2022-10-04T04:31:09;10.40;99.90
13049;DHT22;6591;51.446;5.404;2022-10-04T04:33:56;10.40;99.90
13049;DHT22;6591;51.446;5.404;2022-10-04T04:36:29;10.50;99.90
13049;DHT22;6591;51.446;5.404;2022-10-04T04:39:19;11.90;99.90
13049;DHT22;6591;51.446;5.404;2022-10-04T04:42:12;10.40;99.90
13049;DHT22;6591;51.446;5.404;2022-10-04T04:45:14;10.40;99.90
13049;DHT22;6591;51.446;5.404;2022-10-04T04:47:47;10.40;99.90
13049;DHT22;6591;51.446;5.404;2022-10-04T04:50:25;10.40;99.90
13049;DHT22;6591;51.446;5.404;2022-10-04T04:53:19;10.30;99.90
13049;DHT22;6591;51.446;5.404;2022-10-04T04:55:53;10.30;99.90
13049;DHT22;6591;51.446;5.404;2022-10-04T04:58:32;10.30;99.90
13049;DHT22;6591;51.446;5.404;2022-10-04T05:06:36;10.30;99.90
13049;DHT22;6591;51.446;5.404;2022-10-04T05:09:05;10.30;99.90
13049;DHT22;6591;51.446;5.404;2022-10-04T05:11:48;10.40;99.90
13049;DHT22;6591;51.446;5.404;2022-10-04T05:14:17;10.30;99.90
13049;DHT22;6591;51.446;5.404;2022-10-04T05:16:50;10.40;99.90
13049;DHT22;6591;51.446;5.404;2022-10-04T05:19:29;10.40;99.90
13049;DHT22;6591;51.446;5.404;2022-10-04T05:22:09;10.40;99.90
13049;DHT22;6591;51.446;5.404;2022-10-04T05:24:40;10.40;99.90
13049;DHT22;6591;51.446;5.404;2022-10-04T05:27:29;10.40;99.90
13049;DHT22;6591;51.446;5.404;2022-10-04T05:33:10;10.40;99.90
13049;DHT22;6591;51.446;5.404;2022-10-04T05:38:45;10.30;99.90
13049;DHT22;6591;51.446;5.404;2022-10-04T05:43:59;10.30;99.90
13049;DHT22;6591;51.446;5.404;2022-10-04T05:46:30;10.30;99.90
13049;DHT22;6591;51.446;5.404;2022-10-04T05:49:13;10.30;99.90
13049;DHT22;6591;51.446;5.404;2022-10-04T05:51:54;10.30;99.90
13049;DHT22;6591;51.446;5.404;2022-10-04T05:54:28;10.30;99.90
13049;DHT22;6591;51.446;5.404;2022-10-04T05:57:17;10.20;99.90
13049;DHT22;6591;51.446;5.404;2022-10-04T06:00:13;11.80;99.90
13049;DHT22;6591;51.446;5.404;2022-10-04T06:05:55;10.20;99.90
13049;DHT22;6591;51.446;5.404;2022-10-04T06:11:57;10.20;99.90
13049;DHT22;6591;51.446;5.404;2022-10-04T06:24:13;9.00;99.90
13049;DHT22;6591;51.446;5.404;2022-10-04T06:30:24;10.50;99.90
13049;DHT22;6591;51.446;5.404;2022-10-04T06:45:37;12.10;99.90
13049;DHT22;6591;51.446;5.404;2022-10-04T07:00:28;11.20;99.90
13049;DHT22;6591;51.446;5.404;2022-10-04T07:03:28;12.50;99.90
13049;DHT22;6591;51.446;5.404;2022-10-04T07:06:26;11.30;99.90
13049;DHT22;6591;51.446;5.404;2022-10-04T07:09:02;11.30;99.90
13049;DHT22;6591;51.446;5.404;2022-10-04T07:11:58;11.20;99.90
13049;DHT22;6591;51.446;5.404;2022-10-04T07:14:37;11.30;99.90
13049;DHT22;6591;51.446;5.404;2022-10-04T07:17:23;11.30;99.90
13049;DHT22;6591;51.446;5.404;2022-10-04T07:19:58;11.30;99.90
13049;DHT22;6591;51.446;5.404;2022-10-04T07:22:32;11.30;99.90
13049;DHT22;6591;51.446;5.404;2022-10-04T07:25:30;11.30;99.90
13049;DHT22;6591;51.446;5.404;2022-10-04T07:28:24;11.40;99.90
13049;DHT22;6591;51.446;5.404;2022-10-04T07:31:25;13.00;99.90
13049;DHT22;6591;51.446;5.404;2022-10-04T07:33:58;11.70;99.90
13049;DHT22;6591;51.446;5.404;2022-10-04T07:36:50;11.90;99.90
13049;DHT22;6591;51.446;5.404;2022-10-04T07:39:56;12.00;99.90
13049;DHT22;6591;51.446;5.404;2022-10-04T07:42:45;12.30;99.90
13049;DHT22;6591;51.446;5.404;2022-10-04T07:45:27;12.50;99.90
13049;DHT22;6591;51.446;5.404;2022-10-04T07:48:19;12.70;99.90
13049;DHT22;6591;51.446;5.404;2022-10-04T07:51:04;12.90;99.90
13049;DHT22;6591;51.446;5.404;2022-10-04T07:53:42;13.10;99.90
13049;DHT22;6591;51.446;5.404;2022-10-04T07:56:36;15.90;99.90
13049;DHT22;6591;51.446;5.404;2022-10-04T08:02:36;13.70;99.90
13049;DHT22;6591;51.446;5.404;2022-10-04T08:13:59;14.50;99.90
13049;DHT22;6591;51.446;5.404;2022-10-04T08:16:47;14.80;99.90
13049;DHT22;6591;51.446;5.404;2022-10-04T08:19:39;14.80;99.90
13049;DHT22;6591;51.446;5.404;2022-10-04T08:25:08;15.30;99.90
13049;DHT22;6591;51.446;5.404;2022-10-04T08:31:12;15.80;99.90
13049;DHT22;6591;51.446;5.404;2022-10-04T08:36:42;16.30;99.90
13049;DHT22;6591;51.446;5.404;2022-10-04T08:39:37;16.40;99.90
13049;DHT22;6591;51.446;5.404;2022-10-04T08:45:37;16.90;99.90
13049;DHT22;6591;51.446;5.404;2022-10-04T09:12:45;18.60;99.90
13049;DHT22;6591;51.446;5.404;2022-10-04T09:15:50;18.70;99.90
13049;DHT22;6591;51.446;5.404;2022-10-04T09:21:26;19.10;99.90
13049;DHT22;6591;51.446;5.404;2022-10-04T09:30:22;19.60;99.90
13049;DHT22;6591;51.446;5.404;2022-10-04T09:40:26;20.10;99.90
13049;DHT22;6591;51.446;5.404;2022-10-04T09:58:57;20.70;99.90
13049;DHT22;6591;51.446;5.404;2022-10-04T10:01:38;20.90;99.90
13049;DHT22;6591;51.446;5.404;2022-10-04T10:07:43;21.10;99.90
13049;DHT22;6591;51.446;5.404;2022-10-04T10:10:40;21.30;99.90
13049;DHT22;6591;51.446;5.404;2022-10-04T10:14:09;21.40;99.90
13049;DHT22;6591;51.446;5.404;2022-10-04T10:20:57;21.60;99.90
13049;DHT22;6591;51.446;5.404;2022-10-04T10:23:39;21.80;99.90
13049;DHT22;6591;51.446;5.404;2022-10-04T10:30:36;24.00;99.90
13049;DHT22;6591;51.446;5.404;2022-10-04T10:42:03;22.50;99.90
13049;DHT22;6591;51.446;5.404;2022-10-04T10:45:48;22.60;99.90
13049;DHT22;6591;51.446;5.404;2022-10-04T10:51:16;22.80;99.90
13049;DHT22;6591;51.446;5.404;2022-10-04T11:00:23;23.10;99.90
13049;DHT22;6591;51.446;5.404;2022-10-04T11:06:09;23.20;99.90
13049;DHT22;6591;51.446;5.404;2022-10-04T11:09:14;23.20;99.90
13049;DHT22;6591;51.446;5.404;2022-10-04T11:12:16;23.30;99.90
13049;DHT22;6591;51.446;5.404;2022-10-04T11:24:41;23.50;99.90
13049;DHT22;6591;51.446;5.404;2022-10-04T11:27:48;23.70;99.50
13049;DHT22;6591;51.446;5.404;2022-10-04T11:30:29;23.80;99.20
13049;DHT22;6591;51.446;5.404;2022-10-04T11:36:37;24.00;99.00
13049;DHT22;6591;51.446;5.404;2022-10-04T11:39:35;24.20;98.70
13049;DHT22;6591;51.446;5.404;2022-10-04T11:42:55;24.30;98.50
13049;DHT22;6591;51.446;5.404;2022-10-04T11:48:47;24.50;98.60
13049;DHT22;6591;51.446;5.404;2022-10-04T11:51:40;24.70;99.20
13049;DHT22;6591;51.446;5.404;2022-10-04T12:24:49;25.40;96.50
13049;DHT22;6591;51.446;5.404;2022-10-04T12:33:44;25.30;95.00
13049;DHT22;6591;51.446;5.404;2022-10-04T12:39:24;25.20;96.30
13049;DHT22;6591;51.446;5.404;2022-10-04T12:45:04;25.10;94.60
13049;DHT22;6591;51.446;5.404;2022-10-04T13:03:15;25.10;94.70
13049;DHT22;6591;51.446;5.404;2022-10-04T13:12:02;25.10;93.90
13049;DHT22;6591;51.446;5.404;2022-10-04T13:30:28;25.20;94.60
13049;DHT22;6591;51.446;5.404;2022-10-04T13:53:03;25.50;93.80
13049;DHT22;6591;51.446;5.404;2022-10-04T14:02:47;25.50;93.80
13049;DHT22;6591;51.446;5.404;2022-10-04T14:08:59;25.50;93.50
13049;DHT22;6591;51.446;5.404;2022-10-04T14:20:50;25.40;93.90
13049;DHT22;6591;51.446;5.404;2022-10-04T14:23:54;25.40;93.70
13049;DHT22;6591;51.446;5.404;2022-10-04T14:26:42;25.30;94.60
13049;DHT22;6591;51.446;5.404;2022-10-04T14:30:05;25.30;94.80
13049;DHT22;6591;51.446;5.404;2022-10-04T14:33:13;25.30;93.20
13049;DHT22;6591;51.446;5.404;2022-10-04T14:36:16;25.40;94.20
13049;DHT22;6591;51.446;5.404;2022-10-04T14:42:28;25.60;94.00
13049;DHT22;6591;51.446;5.404;2022-10-04T14:54:30;25.80;94.00
13049;DHT22;6591;51.446;5.404;2022-10-04T14:57:35;25.80;94.20
13049;DHT22;6591;51.446;5.404;2022-10-04T15:00:19;25.80;93.50
13049;DHT22;6591;51.446;5.404;2022-10-04T15:03:06;25.70;93.80
13049;DHT22;6591;51.446;5.404;2022-10-04T15:08:33;25.80;94.10
13049;DHT22;6591;51.446;5.404;2022-10-04T15:11:16;25.80;94.00
13049;DHT22;6591;51.446;5.404;2022-10-04T15:14:04;25.80;94.80
13049;DHT22;6591;51.446;5.404;2022-10-04T15:17:07;25.90;94.90
13049;DHT22;6591;51.446;5.404;2022-10-04T15:25:40;26.00;92.90
13049;DHT22;6591;51.446;5.404;2022-10-04T15:31:23;25.90;93.50
13049;DHT22;6591;51.446;5.404;2022-10-04T15:34:43;26.60;92.70
13049;DHT22;6591;51.446;5.404;2022-10-04T15:43:23;24.80;93.00
13049;DHT22;6591;51.446;5.404;2022-10-04T15:46:48;24.50;92.60
13049;DHT22;6591;51.446;5.404;2022-10-04T15:49:47;24.30;93.50
13049;DHT22;6591;51.446;5.404;2022-10-04T15:53:11;24.00;93.00
13049;DHT22;6591;51.446;5.404;2022-10-04T15:56:47;23.50;92.80
13049;DHT22;6591;51.446;5.404;2022-10-04T16:02:26;23.20;94.50
13049;DHT22;6591;51.446;5.404;2022-10-04T16:05:33;23.00;94.20
13049;DHT22;6591;51.446;5.404;2022-10-04T16:15:39;22.50;95.40
13049;DHT22;6591;51.446;5.404;2022-10-04T16:19:40;22.50;95.40
13049;DHT22;6591;51.446;5.404;2022-10-04T16:23:35;22.40;96.00
13049;DHT22;6591;51.446;5.404;2022-10-04T16:27:39;22.30;97.00
13049;DHT22;6591;51.446;5.404;2022-10-04T16:30:22;22.20;96.80
13049;DHT22;6591;51.446;5.404;2022-10-04T16:38:47;22.00;96.40
13049;DHT22;6591;51.446;5.404;2022-10-04T16:41:45;21.90;97.10
13049;DHT22;6591;51.446;5.404;2022-10-04T16:48:11;21.60;96.70
13049;DHT22;6591;51.446;5.404;2022-10-04T17:08:24;20.10;97.50
13049;DHT22;6591;51.446;5.404;2022-10-04T17:11:44;19.90;97.70
13049;DHT22;6591;51.446;5.404;2022-10-04T17:15:06;19.70;97.70
13049;DHT22;6591;51.446;5.404;2022-10-04T17:26:51;18.90;98.50
13049;DHT22;6591;51.446;5.404;2022-10-04T17:47:18;17.70;99.90
13049;DHT22;6591;51.446;5.404;2022-10-04T17:50:03;19.50;99.90
13049;DHT22;6591;51.446;5.404;2022-10-04T17:53:03;17.40;99.90
13049;DHT22;6591;51.446;5.404;2022-10-04T17:56:00;17.30;99.90
13049;DHT22;6591;51.446;5.404;2022-10-04T17:58:53;17.30;99.90
13049;DHT22;6591;51.446;5.404;2022-10-04T18:01:29;17.30;99.90
13049;DHT22;6591;51.446;5.404;2022-10-04T18:04:23;17.30;99.90
13049;DHT22;6591;51.446;5.404;2022-10-04T18:07:15;17.20;99.90
13049;DHT22;6591;51.446;5.404;2022-10-04T18:09:51;17.40;99.90
13049;DHT22;6591;51.446;5.404;2022-10-04T18:12:54;17.60;99.90
13049;DHT22;6591;51.446;5.404;2022-10-04T18:18:17;17.50;99.90
13049;DHT22;6591;51.446;5.404;2022-10-04T18:23:31;17.50;99.90
13049;DHT22;6591;51.446;5.404;2022-10-04T18:28:44;17.30;99.90
13049;DHT22;6591;51.446;5.404;2022-10-04T18:33:53;19.60;99.90
13049;DHT22;6591;51.446;5.404;2022-10-04T18:36:27;17.20;99.90
13049;DHT22;6591;51.446;5.404;2022-10-04T18:41:44;17.00;99.90
13049;DHT22;6591;51.446;5.404;2022-10-04T18:44:44;16.90;99.90
13049;DHT22;6591;51.446;5.404;2022-10-04T18:47:34;18.30;99.90
13049;DHT22;6591;51.446;5.404;2022-10-04T18:56:02;16.50;99.90
13049;DHT22;6591;51.446;5.404;2022-10-04T18:59:05;16.40;99.90
13049;DHT22;6591;51.446;5.404;2022-10-04T19:02:11;16.30;99.90
13049;DHT22;6591;51.446;5.404;2022-10-04T19:05:05;16.20;99.90
13049;DHT22;6591;51.446;5.404;2022-10-04T19:07:42;16.10;99.90
13049;DHT22;6591;51.446;5.404;2022-10-04T19:18:46;16.00;99.90
13049;DHT22;6591;51.446;5.404;2022-10-04T19:27:31;16.10;99.90
13049;DHT22;6591;51.446;5.404;2022-10-04T19:36:06;16.40;99.90
13049;DHT22;6591;51.446;5.404;2022-10-04T19:39:02;16.50;99.90
13049;DHT22;6591;51.446;5.404;2022-10-04T19:41:57;16.50;99.90
13049;DHT22;6591;51.446;5.404;2022-10-04T19:47:35;16.70;99.90
13049;DHT22;6591;51.446;5.404;2022-10-04T19:52:40;16.80;99.90
13049;DHT22;6591;51.446;5.404;2022-10-04T19:58:32;16.90;99.90
13049;DHT22;6591;51.446;5.404;2022-10-04T20:01:18;16.90;99.90
13049;DHT22;6591;51.446;5.404;2022-10-04T20:03:51;17.00;99.90
13049;DHT22;6591;51.446;5.404;2022-10-04T20:06:55;17.00;99.90
13049;DHT22;6591;51.446;5.404;2022-10-04T20:09:31;18.60;99.90
13049;DHT22;6591;51.446;5.404;2022-10-04T20:12:57;18.30;99.90
13049;DHT22;6591;51.446;5.404;2022-10-04T20:15:55;17.20;99.90
13049;DHT22;6591;51.446;5.404;2022-10-04T20:26:41;17.30;99.90
13049;DHT22;6591;51.446;5.404;2022-10-04T20:29:56;17.30;99.90
13049;DHT22;6591;51.446;5.404;2022-10-04T20:35:09;17.30;99.90
13049;DHT22;6591;51.446;5.404;2022-10-04T20:45:49;17.30;99.90
13049;DHT22;6591;51.446;5.404;2022-10-04T20:48:24;18.50;99.90
13049;DHT22;6591;51.446;5.404;2022-10-04T20:51:06;17.40;99.90
13049;DHT22;6591;51.446;5.404;2022-10-04T20:53:41;19.70;99.90
13049;DHT22;6591;51.446;5.404;2022-10-04T20:56:31;17.40;99.90
13049;DHT22;6591;51.446;5.404;2022-10-04T20:59:00;17.40;99.90
13049;DHT22;6591;51.446;5.404;2022-10-04T21:01:34;17.40;99.90
13049;DHT22;6591;51.446;5.404;2022-10-04T21:04:23;17.30;99.90
13049;DHT22;6591;51.446;5.404;2022-10-04T21:07:25;17.30;99.90
13049;DHT22;6591;51.446;5.404;2022-10-04T21:09:52;17.30;99.90
13049;DHT22;6591;51.446;5.404;2022-10-04T21:12:38;17.30;99.90
13049;DHT22;6591;51.446;5.404;2022-10-04T21:18:06;17.30;99.90
13049;DHT22;6591;51.446;5.404;2022-10-04T21:23:31;17.30;99.90
13049;DHT22;6591;51.446;5.404;2022-10-04T21:26:22;17.30;99.90
13049;DHT22;6591;51.446;5.404;2022-10-04T21:28:54;17.30;99.90
13049;DHT22;6591;51.446;5.404;2022-10-04T21:31:25;17.30;99.90
13049;DHT22;6591;51.446;5.404;2022-10-04T21:33:52;18.20;99.90
13049;DHT22;6591;51.446;5.404;2022-10-04T21:36:19;17.80;99.90
13049;DHT22;6591;51.446;5.404;2022-10-04T21:38:46;17.80;99.90
13049;DHT22;6591;51.446;5.404;2022-10-04T21:41:13;17.30;99.90
13049;DHT22;6591;51.446;5.404;2022-10-04T21:43:40;18.10;99.90
13049;DHT22;6591;51.446;5.404;2022-10-04T21:46:07;17.30;99.90
13049;DHT22;6591;51.446;5.404;2022-10-04T21:48:34;17.30;99.90
13049;DHT22;6591;51.446;5.404;2022-10-04T21:51:01;18.60;99.90
13049;DHT22;6591;51.446;5.404;2022-10-04T21:53:28;17.40;99.90
13049;DHT22;6591;51.446;5.404;2022-10-04T21:55:57;17.40;99.90
13049;DHT22;6591;51.446;5.404;2022-10-04T21:58:24;15.80;99.90
13049;DHT22;6591;51.446;5.404;2022-10-04T22:00:51;17.50;99.90
13049;DHT22;6591;51.446;5.404;2022-10-04T22:03:18;17.40;99.90
13049;DHT22;6591;51.446;5.404;2022-10-04T22:05:45;17.40;99.90
13049;DHT22;6591;51.446;5.404;2022-10-04T22:08:12;17.60;99.90
13049;DHT22;6591;51.446;5.404;2022-10-04T22:10:39;17.40;99.90
13049;DHT22;6591;51.446;5.404;2022-10-04T22:13:06;17.50;99.90
13049;DHT22;6591;51.446;5.404;2022-10-04T22:15:33;18.10;99.90
13049;DHT22;6591;51.446;5.404;2022-10-04T22:18:00;17.50;99.90
13049;DHT22;6591;51.446;5.404;2022-10-04T22:20:27;17.50;99.90
13049;DHT22;6591;51.446;5.404;2022-10-04T22:22:57;17.50;99.90
13049;DHT22;6591;51.446;5.404;2022-10-04T22:25:27;18.60;99.90
13049;DHT22;6591;51.446;5.404;2022-10-04T22:27:54;17.50;99.90
13049;DHT22;6591;51.446;5.404;2022-10-04T22:30:24;17.50;99.90
13049;DHT22;6591;51.446;5.404;2022-10-04T22:33:00;17.40;99.90
13049;DHT22;6591;51.446;5.404;2022-10-04T22:35:29;17.50;99.90
13049;DHT22;6591;51.446;5.404;2022-10-04T22:38:03;17.50;99.90
13049;DHT22;6591;51.446;5.404;2022-10-04T22:40:32;17.50;99.90
13049;DHT22;6591;51.446;5.404;2022-10-04T22:42:58;18.50;99.90
13049;DHT22;6591;51.446;5.404;2022-10-04T22:45:32;18.20;99.90
13049;DHT22;6591;51.446;5.404;2022-10-04T22:48:00;18.80;99.90
13049;DHT22;6591;51.446;5.404;2022-10-04T22:50:39;17.50;99.90
13049;DHT22;6591;51.446;5.404;2022-10-04T22:53:18;17.40;99.90
13049;DHT22;6591;51.446;5.404;2022-10-04T22:55:48;17.40;99.90
13049;DHT22;6591;51.446;5.404;2022-10-04T22:58:18;17.40;99.90
13049;DHT22;6591;51.446;5.404;2022-10-04T23:00:48;17.40;99.90
13049;DHT22;6591;51.446;5.404;2022-10-04T23:05:53;17.40;99.90
13049;DHT22;6591;51.446;5.404;2022-10-04T23:08:21;18.90;99.90
13049;DHT22;6591;51.446;5.404;2022-10-04T23:10:52;17.30;99.90
13049;DHT22;6591;51.446;5.404;2022-10-04T23:13:22;19.20;99.90
13049;DHT22;6591;51.446;5.404;2022-10-04T23:15:51;17.30;99.90
13049;DHT22;6591;51.446;5.404;2022-10-04T23:18:18;18.20;99.90
13049;DHT22;6591;51.446;5.404;2022-10-04T23:20:55;17.30;99.90
13049;DHT22;6591;51.446;5.404;2022-10-04T23:23:26;17.70;99.90
13049;DHT22;6591;51.446;5.404;2022-10-04T23:25:56;17.30;99.90
13049;DHT22;6591;51.446;5.404;2022-10-04T23:28:23;17.30;99.90
13049;DHT22;6591;51.446;5.404;2022-10-04T23:31:09;17.30;99.90
13049;DHT22;6591;51.446;5.404;2022-10-04T23:33:54;17.30;99.90
13049;DHT22;6591;51.446;5.404;2022-10-04T23:36:22;17.20;99.90
13049;DHT22;6591;51.446;5.404;2022-10-04T23:38:55;18.50;99.90
13049;DHT22;6591;51.446;5.404;2022-10-04T23:41:26;17.30;99.90
13049;DHT22;6591;51.446;5.404;2022-10-04T23:43:53;17.70;99.90
13049;DHT22;6591;51.446;5.404;2022-10-04T23:46:21;17.30;99.90
13049;DHT22;6591;51.446;5.404;2022-10-04T23:48:50;17.70;99.90
13049;DHT22;6591;51.446;5.404;2022-10-04T23:51:18;17.30;99.90
13049;DHT22;6591;51.446;5.404;2022-10-04T23:53:47;17.40;99.90
13049;DHT22;6591;51.446;5.404;2022-10-04T23:56:19;17.30;99.90
13049;DHT22;6591;51.446;5.404;2022-10-04T23:58:50;17.20;99.90
